sensor_id;sensor_type;location;lat;lon;timestamp;P1;durP1;ratioP1;P2;durP2;ratioP2
75932;SDS011;64803;52.356;5.310;2023-02-21T00:00:59;38.35;;;13.27;;
75932;SDS011;64803;52.356;5.310;2023-02-21T00:03:43;31.88;;;13.23;;
75932;SDS011;64803;52.356;5.310;2023-02-21T00:06:28;30.50;;;14.50;;
75932;SDS011;64803;52.356;5.310;2023-02-21T00:09:12;29.02;;;12.60;;
75932;SDS011;64803;52.356;5.310;2023-02-21T00:11:57;32.03;;;15.05;;
75932;SDS011;64803;52.356;5.310;2023-02-21T00:14:41;31.75;;;13.55;;
75932;SDS011;64803;52.356;5.310;2023-02-21T00:17:25;31.58;;;13.40;;
75932;SDS011;64803;52.356;5.310;2023-02-21T00:20:10;33.60;;;13.38;;
75932;SDS011;64803;52.356;5.310;2023-02-21T00:22:55;45.55;;;14.70;;
75932;SDS011;64803;52.356;5.310;2023-02-21T00:25:39;36.25;;;18.10;;
75932;SDS011;64803;52.356;5.310;2023-02-21T00:28:24;30.23;;;13.50;;
75932;SDS011;64803;52.356;5.310;2023-02-21T00:31:08;34.22;;;14.70;;
75932;SDS011;64803;52.356;5.310;2023-02-21T00:33:53;42.58;;;14.40;;
75932;SDS011;64803;52.356;5.310;2023-02-21T00:36:39;34.30;;;15.27;;
75932;SDS011;64803;52.356;5.310;2023-02-21T00:42:08;33.88;;;13.95;;
75932;SDS011;64803;52.356;5.310;2023-02-21T00:44:53;37.38;;;14.93;;
75932;SDS011;64803;52.356;5.310;2023-02-21T00:47:37;30.73;;;12.52;;
75932;SDS011;64803;52.356;5.310;2023-02-21T00:50:22;40.15;;;18.27;;
75932;SDS011;64803;52.356;5.310;2023-02-21T00:53:07;37.65;;;15.07;;
75932;SDS011;64803;52.356;5.310;2023-02-21T00:55:51;42.28;;;14.50;;
75932;SDS011;64803;52.356;5.310;2023-02-21T00:58:36;35.72;;;15.15;;
75932;SDS011;64803;52.356;5.310;2023-02-21T01:01:20;34.97;;;14.20;;
75932;SDS011;64803;52.356;5.310;2023-02-21T01:04:05;26.05;;;10.02;;
75932;SDS011;64803;52.356;5.310;2023-02-21T01:06:49;32.10;;;13.85;;
75932;SDS011;64803;52.356;5.310;2023-02-21T01:09:34;36.35;;;14.88;;
75932;SDS011;64803;52.356;5.310;2023-02-21T01:12:19;28.23;;;10.30;;
75932;SDS011;64803;52.356;5.310;2023-02-21T01:15:04;32.20;;;12.55;;
75932;SDS011;64803;52.356;5.310;2023-02-21T01:17:49;33.03;;;13.85;;
75932;SDS011;64803;52.356;5.310;2023-02-21T01:20:34;37.25;;;14.80;;
75932;SDS011;64803;52.356;5.310;2023-02-21T01:23:18;41.45;;;16.02;;
75932;SDS011;64803;52.356;5.310;2023-02-21T01:26:03;29.40;;;11.70;;
75932;SDS011;64803;52.356;5.310;2023-02-21T01:28:48;36.90;;;14.80;;
75932;SDS011;64803;52.356;5.310;2023-02-21T01:31:32;39.10;;;15.00;;
75932;SDS011;64803;52.356;5.310;2023-02-21T01:34:17;36.30;;;14.93;;
75932;SDS011;64803;52.356;5.310;2023-02-21T01:37:01;37.83;;;14.32;;
75932;SDS011;64803;52.356;5.310;2023-02-21T01:39:48;41.83;;;16.38;;
75932;SDS011;64803;52.356;5.310;2023-02-21T01:42:33;41.13;;;15.05;;
75932;SDS011;64803;52.356;5.310;2023-02-21T01:48:06;44.25;;;19.85;;
75932;SDS011;64803;52.356;5.310;2023-02-21T01:50:54;41.38;;;17.13;;
75932;SDS011;64803;52.356;5.310;2023-02-21T01:53:40;42.35;;;15.38;;
75932;SDS011;64803;52.356;5.310;2023-02-21T01:56:27;40.75;;;16.75;;
75932;SDS011;64803;52.356;5.310;2023-02-21T01:59:14;44.13;;;19.23;;
75932;SDS011;64803;52.356;5.310;2023-02-21T02:02:01;44.28;;;16.00;;
75932;SDS011;64803;52.356;5.310;2023-02-21T02:04:50;43.95;;;17.10;;
75932;SDS011;64803;52.356;5.310;2023-02-21T02:07:36;50.63;;;18.70;;
75932;SDS011;64803;52.356;5.310;2023-02-21T02:10:21;38.92;;;15.57;;
75932;SDS011;64803;52.356;5.310;2023-02-21T02:13:21;41.25;;;18.35;;
75932;SDS011;64803;52.356;5.310;2023-02-21T02:16:02;40.15;;;17.15;;
75932;SDS011;64803;52.356;5.310;2023-02-21T02:24:09;38.85;;;15.48;;
75932;SDS011;64803;52.356;5.310;2023-02-21T02:26:55;41.67;;;14.77;;
75932;SDS011;64803;52.356;5.310;2023-02-21T02:29:33;50.83;;;18.70;;
75932;SDS011;64803;52.356;5.310;2023-02-21T02:37:47;39.58;;;17.83;;
75932;SDS011;64803;52.356;5.310;2023-02-21T02:40:22;44.58;;;15.68;;
75932;SDS011;64803;52.356;5.310;2023-02-21T02:48:45;45.83;;;17.48;;
75932;SDS011;64803;52.356;5.310;2023-02-21T02:51:20;41.13;;;17.55;;
75932;SDS011;64803;52.356;5.310;2023-02-21T02:53:47;43.13;;;15.80;;
75932;SDS011;64803;52.356;5.310;2023-02-21T02:56:14;41.63;;;15.50;;
75932;SDS011;64803;52.356;5.310;2023-02-21T02:58:43;39.72;;;15.90;;
75932;SDS011;64803;52.356;5.310;2023-02-21T03:03:53;36.92;;;15.93;;
75932;SDS011;64803;52.356;5.310;2023-02-21T03:07:11;45.25;;;18.05;;
75932;SDS011;64803;52.356;5.310;2023-02-21T03:09:33;51.10;;;18.08;;
75932;SDS011;64803;52.356;5.310;2023-02-21T03:15:04;42.00;;;17.27;;
75932;SDS011;64803;52.356;5.310;2023-02-21T03:17:38;38.10;;;14.73;;
75932;SDS011;64803;52.356;5.310;2023-02-21T03:20:08;27.02;;;11.00;;
75932;SDS011;64803;52.356;5.310;2023-02-21T03:22:37;43.25;;;14.80;;
75932;SDS011;64803;52.356;5.310;2023-02-21T03:25:05;47.67;;;20.40;;
75932;SDS011;64803;52.356;5.310;2023-02-21T03:27:34;28.20;;;12.13;;
75932;SDS011;64803;52.356;5.310;2023-02-21T03:30:22;48.15;;;18.70;;
75932;SDS011;64803;52.356;5.310;2023-02-21T03:32:50;44.13;;;17.08;;
75932;SDS011;64803;52.356;5.310;2023-02-21T03:35:19;40.97;;;15.70;;
75932;SDS011;64803;52.356;5.310;2023-02-21T03:37:48;44.15;;;17.80;;
75932;SDS011;64803;52.356;5.310;2023-02-21T03:40:24;36.03;;;16.33;;
75932;SDS011;64803;52.356;5.310;2023-02-21T03:42:52;33.15;;;13.18;;
75932;SDS011;64803;52.356;5.310;2023-02-21T03:45:20;48.60;;;16.27;;
75932;SDS011;64803;52.356;5.310;2023-02-21T03:48:19;32.03;;;12.63;;
75932;SDS011;64803;52.356;5.310;2023-02-21T03:50:45;40.60;;;16.83;;
75932;SDS011;64803;52.356;5.310;2023-02-21T03:53:11;50.38;;;21.27;;
75932;SDS011;64803;52.356;5.310;2023-02-21T03:55:41;37.70;;;15.25;;
75932;SDS011;64803;52.356;5.310;2023-02-21T03:58:13;50.92;;;21.85;;
75932;SDS011;64803;52.356;5.310;2023-02-21T04:00:39;39.25;;;16.70;;
75932;SDS011;64803;52.356;5.310;2023-02-21T04:03:06;48.15;;;19.75;;
75932;SDS011;64803;52.356;5.310;2023-02-21T04:05:38;34.70;;;14.30;;
75932;SDS011;64803;52.356;5.310;2023-02-21T04:08:05;41.40;;;16.98;;
75932;SDS011;64803;52.356;5.310;2023-02-21T04:10:32;43.33;;;15.70;;
75932;SDS011;64803;52.356;5.310;2023-02-21T04:12:58;41.65;;;17.13;;
75932;SDS011;64803;52.356;5.310;2023-02-21T04:15:25;48.55;;;20.23;;
75932;SDS011;64803;52.356;5.310;2023-02-21T04:17:51;48.65;;;21.00;;
75932;SDS011;64803;52.356;5.310;2023-02-21T04:20:17;44.65;;;18.10;;
75932;SDS011;64803;52.356;5.310;2023-02-21T04:22:51;49.10;;;20.38;;
75932;SDS011;64803;52.356;5.310;2023-02-21T04:25:18;52.47;;;21.45;;
75932;SDS011;64803;52.356;5.310;2023-02-21T04:27:49;33.85;;;13.57;;
75932;SDS011;64803;52.356;5.310;2023-02-21T04:30:15;48.63;;;18.52;;
75932;SDS011;64803;52.356;5.310;2023-02-21T04:32:41;53.33;;;20.23;;
75932;SDS011;64803;52.356;5.310;2023-02-21T04:35:11;37.50;;;14.98;;
75932;SDS011;64803;52.356;5.310;2023-02-21T04:37:38;45.35;;;17.60;;
75932;SDS011;64803;52.356;5.310;2023-02-21T04:40:04;37.85;;;16.50;;
75932;SDS011;64803;52.356;5.310;2023-02-21T04:42:33;47.95;;;19.27;;
75932;SDS011;64803;52.356;5.310;2023-02-21T04:44:59;60.25;;;22.48;;
75932;SDS011;64803;52.356;5.310;2023-02-21T04:47:25;47.25;;;19.85;;
75932;SDS011;64803;52.356;5.310;2023-02-21T04:49:51;49.05;;;19.25;;
75932;SDS011;64803;52.356;5.310;2023-02-21T04:52:17;49.78;;;18.75;;
75932;SDS011;64803;52.356;5.310;2023-02-21T04:54:46;56.70;;;20.48;;
75932;SDS011;64803;52.356;5.310;2023-02-21T04:57:14;53.42;;;19.60;;
75932;SDS011;64803;52.356;5.310;2023-02-21T04:59:40;52.95;;;17.88;;
75932;SDS011;64803;52.356;5.310;2023-02-21T05:02:07;59.17;;;20.10;;
75932;SDS011;64803;52.356;5.310;2023-02-21T05:04:34;56.95;;;23.60;;
75932;SDS011;64803;52.356;5.310;2023-02-21T05:07:01;54.90;;;19.40;;
75932;SDS011;64803;52.356;5.310;2023-02-21T05:09:28;49.03;;;17.52;;
75932;SDS011;64803;52.356;5.310;2023-02-21T05:11:54;48.25;;;16.77;;
75932;SDS011;64803;52.356;5.310;2023-02-21T05:14:20;56.28;;;21.50;;
75932;SDS011;64803;52.356;5.310;2023-02-21T05:16:46;56.30;;;20.27;;
75932;SDS011;64803;52.356;5.310;2023-02-21T05:19:12;57.65;;;21.55;;
75932;SDS011;64803;52.356;5.310;2023-02-21T05:21:53;59.92;;;22.98;;
75932;SDS011;64803;52.356;5.310;2023-02-21T05:24:23;49.30;;;19.63;;
75932;SDS011;64803;52.356;5.310;2023-02-21T05:26:50;56.25;;;21.58;;
75932;SDS011;64803;52.356;5.310;2023-02-21T05:29:16;52.97;;;25.30;;
75932;SDS011;64803;52.356;5.310;2023-02-21T05:31:43;55.35;;;23.83;;
75932;SDS011;64803;52.356;5.310;2023-02-21T05:34:09;64.05;;;23.95;;
75932;SDS011;64803;52.356;5.310;2023-02-21T05:36:36;49.13;;;18.50;;
75932;SDS011;64803;52.356;5.310;2023-02-21T05:39:02;52.90;;;20.10;;
75932;SDS011;64803;52.356;5.310;2023-02-21T05:41:29;57.33;;;22.10;;
75932;SDS011;64803;52.356;5.310;2023-02-21T05:43:56;52.22;;;18.30;;
75932;SDS011;64803;52.356;5.310;2023-02-21T05:46:26;56.22;;;20.63;;
75932;SDS011;64803;52.356;5.310;2023-02-21T05:48:54;66.95;;;27.67;;
75932;SDS011;64803;52.356;5.310;2023-02-21T05:51:21;64.40;;;21.33;;
75932;SDS011;64803;52.356;5.310;2023-02-21T05:53:47;66.43;;;23.90;;
75932;SDS011;64803;52.356;5.310;2023-02-21T05:56:14;59.08;;;20.80;;
75932;SDS011;64803;52.356;5.310;2023-02-21T05:58:41;63.28;;;23.77;;
75932;SDS011;64803;52.356;5.310;2023-02-21T06:01:08;68.00;;;23.42;;
75932;SDS011;64803;52.356;5.310;2023-02-21T06:03:34;65.32;;;25.00;;
75932;SDS011;64803;52.356;5.310;2023-02-21T06:06:00;68.47;;;26.77;;
75932;SDS011;64803;52.356;5.310;2023-02-21T06:08:27;60.35;;;21.63;;
75932;SDS011;64803;52.356;5.310;2023-02-21T06:10:53;55.13;;;20.55;;
75932;SDS011;64803;52.356;5.310;2023-02-21T06:13:19;46.67;;;18.98;;
75932;SDS011;64803;52.356;5.310;2023-02-21T06:15:45;51.47;;;18.67;;
75932;SDS011;64803;52.356;5.310;2023-02-21T06:18:12;67.78;;;24.65;;
75932;SDS011;64803;52.356;5.310;2023-02-21T06:20:39;52.25;;;16.92;;
75932;SDS011;64803;52.356;5.310;2023-02-21T06:23:05;62.78;;;21.92;;
75932;SDS011;64803;52.356;5.310;2023-02-21T06:25:31;61.47;;;21.10;;
75932;SDS011;64803;52.356;5.310;2023-02-21T06:27:57;71.03;;;24.92;;
75932;SDS011;64803;52.356;5.310;2023-02-21T06:30:24;67.40;;;26.25;;
75932;SDS011;64803;52.356;5.310;2023-02-21T06:32:50;66.72;;;27.20;;
75932;SDS011;64803;52.356;5.310;2023-02-21T06:35:16;63.80;;;25.10;;
75932;SDS011;64803;52.356;5.310;2023-02-21T06:37:42;66.05;;;24.63;;
75932;SDS011;64803;52.356;5.310;2023-02-21T06:40:08;80.72;;;25.77;;
75932;SDS011;64803;52.356;5.310;2023-02-21T06:42:34;63.70;;;22.58;;
75932;SDS011;64803;52.356;5.310;2023-02-21T06:45:01;67.45;;;24.45;;
75932;SDS011;64803;52.356;5.310;2023-02-21T06:47:28;52.22;;;17.75;;
75932;SDS011;64803;52.356;5.310;2023-02-21T06:49:54;73.32;;;27.77;;
75932;SDS011;64803;52.356;5.310;2023-02-21T06:52:20;75.47;;;28.63;;
75932;SDS011;64803;52.356;5.310;2023-02-21T06:54:48;68.63;;;24.10;;
75932;SDS011;64803;52.356;5.310;2023-02-21T06:57:15;72.47;;;25.02;;
75932;SDS011;64803;52.356;5.310;2023-02-21T06:59:41;71.30;;;26.80;;
75932;SDS011;64803;52.356;5.310;2023-02-21T07:02:07;68.65;;;24.00;;
75932;SDS011;64803;52.356;5.310;2023-02-21T07:04:43;59.83;;;24.20;;
75932;SDS011;64803;52.356;5.310;2023-02-21T07:07:10;69.03;;;22.63;;
75932;SDS011;64803;52.356;5.310;2023-02-21T07:09:36;64.13;;;22.65;;
75932;SDS011;64803;52.356;5.310;2023-02-21T07:12:02;74.18;;;25.88;;
75932;SDS011;64803;52.356;5.310;2023-02-21T07:14:28;63.47;;;22.02;;
75932;SDS011;64803;52.356;5.310;2023-02-21T07:16:54;79.03;;;27.17;;
75932;SDS011;64803;52.356;5.310;2023-02-21T07:19:20;59.92;;;23.15;;
75932;SDS011;64803;52.356;5.310;2023-02-21T07:21:46;72.10;;;27.15;;
75932;SDS011;64803;52.356;5.310;2023-02-21T07:24:13;73.72;;;25.52;;
75932;SDS011;64803;52.356;5.310;2023-02-21T07:26:39;72.10;;;25.95;;
75932;SDS011;64803;52.356;5.310;2023-02-21T07:29:05;68.68;;;25.13;;
75932;SDS011;64803;52.356;5.310;2023-02-21T07:31:31;67.03;;;23.30;;
75932;SDS011;64803;52.356;5.310;2023-02-21T07:33:58;70.13;;;25.60;;
75932;SDS011;64803;52.356;5.310;2023-02-21T07:36:24;73.60;;;27.08;;
75932;SDS011;64803;52.356;5.310;2023-02-21T07:38:50;69.85;;;25.83;;
75932;SDS011;64803;52.356;5.310;2023-02-21T07:41:16;72.88;;;26.10;;
75932;SDS011;64803;52.356;5.310;2023-02-21T07:43:42;62.42;;;22.58;;
75932;SDS011;64803;52.356;5.310;2023-02-21T07:46:12;55.47;;;20.33;;
75932;SDS011;64803;52.356;5.310;2023-02-21T07:48:39;78.22;;;29.13;;
75932;SDS011;64803;52.356;5.310;2023-02-21T07:51:06;75.78;;;25.48;;
75932;SDS011;64803;52.356;5.310;2023-02-21T07:53:32;84.00;;;28.35;;
75932;SDS011;64803;52.356;5.310;2023-02-21T07:55:59;75.35;;;26.67;;
75932;SDS011;64803;52.356;5.310;2023-02-21T07:58:25;74.38;;;28.42;;
75932;SDS011;64803;52.356;5.310;2023-02-21T08:00:51;74.57;;;25.95;;
75932;SDS011;64803;52.356;5.310;2023-02-21T08:03:17;88.88;;;27.95;;
75932;SDS011;64803;52.356;5.310;2023-02-21T08:05:43;74.10;;;27.85;;
75932;SDS011;64803;52.356;5.310;2023-02-21T08:08:10;54.33;;;17.83;;
75932;SDS011;64803;52.356;5.310;2023-02-21T08:10:36;75.97;;;22.38;;
75932;SDS011;64803;52.356;5.310;2023-02-21T08:13:03;80.38;;;28.17;;
75932;SDS011;64803;52.356;5.310;2023-02-21T08:15:29;69.65;;;26.10;;
75932;SDS011;64803;52.356;5.310;2023-02-21T08:17:55;75.70;;;26.88;;
75932;SDS011;64803;52.356;5.310;2023-02-21T08:20:21;75.50;;;26.40;;
75932;SDS011;64803;52.356;5.310;2023-02-21T08:22:47;69.07;;;23.70;;
75932;SDS011;64803;52.356;5.310;2023-02-21T08:25:14;63.47;;;24.38;;
75932;SDS011;64803;52.356;5.310;2023-02-21T08:27:41;56.55;;;22.30;;
75932;SDS011;64803;52.356;5.310;2023-02-21T08:30:08;81.28;;;27.70;;
75932;SDS011;64803;52.356;5.310;2023-02-21T08:32:36;76.68;;;26.63;;
75932;SDS011;64803;52.356;5.310;2023-02-21T08:35:06;70.70;;;24.98;;
75932;SDS011;64803;52.356;5.310;2023-02-21T08:37:33;67.88;;;28.67;;
75932;SDS011;64803;52.356;5.310;2023-02-21T08:40:01;70.30;;;28.35;;
75932;SDS011;64803;52.356;5.310;2023-02-21T08:42:28;61.38;;;23.15;;
75932;SDS011;64803;52.356;5.310;2023-02-21T08:44:55;62.38;;;24.38;;
75932;SDS011;64803;52.356;5.310;2023-02-21T08:47:22;55.97;;;24.60;;
75932;SDS011;64803;52.356;5.310;2023-02-21T08:49:48;74.07;;;28.08;;
75932;SDS011;64803;52.356;5.310;2023-02-21T08:52:15;65.18;;;24.23;;
75932;SDS011;64803;52.356;5.310;2023-02-21T08:54:42;66.55;;;25.92;;
75932;SDS011;64803;52.356;5.310;2023-02-21T08:57:09;62.90;;;24.40;;
75932;SDS011;64803;52.356;5.310;2023-02-21T08:59:39;66.50;;;24.90;;
75932;SDS011;64803;52.356;5.310;2023-02-21T09:02:13;66.65;;;26.33;;
75932;SDS011;64803;52.356;5.310;2023-02-21T09:04:44;69.00;;;27.48;;
75932;SDS011;64803;52.356;5.310;2023-02-21T09:07:11;62.10;;;25.90;;
75932;SDS011;64803;52.356;5.310;2023-02-21T09:09:39;71.15;;;25.33;;
75932;SDS011;64803;52.356;5.310;2023-02-21T09:12:05;38.05;;;17.10;;
75932;SDS011;64803;52.356;5.310;2023-02-21T09:14:34;69.22;;;26.90;;
75932;SDS011;64803;52.356;5.310;2023-02-21T09:17:02;59.60;;;23.88;;
75932;SDS011;64803;52.356;5.310;2023-02-21T09:19:29;62.00;;;27.10;;
75932;SDS011;64803;52.356;5.310;2023-02-21T09:21:56;65.97;;;26.35;;
75932;SDS011;64803;52.356;5.310;2023-02-21T09:24:22;63.40;;;25.02;;
75932;SDS011;64803;52.356;5.310;2023-02-21T09:26:53;50.60;;;20.15;;
75932;SDS011;64803;52.356;5.310;2023-02-21T09:29:26;59.63;;;22.77;;
75932;SDS011;64803;52.356;5.310;2023-02-21T09:31:53;57.30;;;25.15;;
75932;SDS011;64803;52.356;5.310;2023-02-21T09:34:19;45.83;;;18.73;;
75932;SDS011;64803;52.356;5.310;2023-02-21T09:39:13;59.55;;;23.42;;
75932;SDS011;64803;52.356;5.310;2023-02-21T09:41:40;58.17;;;24.13;;
75932;SDS011;64803;52.356;5.310;2023-02-21T09:44:12;55.65;;;22.48;;
75932;SDS011;64803;52.356;5.310;2023-02-21T09:46:43;66.47;;;27.42;;
75932;SDS011;64803;52.356;5.310;2023-02-21T09:49:31;56.90;;;20.95;;
75932;SDS011;64803;52.356;5.310;2023-02-21T09:52:00;60.55;;;23.60;;
75932;SDS011;64803;52.356;5.310;2023-02-21T09:54:30;63.55;;;25.60;;
75932;SDS011;64803;52.356;5.310;2023-02-21T09:57:00;61.50;;;24.65;;
75932;SDS011;64803;52.356;5.310;2023-02-21T09:59:28;63.45;;;26.70;;
75932;SDS011;64803;52.356;5.310;2023-02-21T10:01:58;61.13;;;22.52;;
75932;SDS011;64803;52.356;5.310;2023-02-21T10:07:30;65.05;;;23.27;;
75932;SDS011;64803;52.356;5.310;2023-02-21T10:09:59;68.07;;;23.63;;
75932;SDS011;64803;52.356;5.310;2023-02-21T10:18:05;37.83;;;14.98;;
75932;SDS011;64803;52.356;5.310;2023-02-21T10:20:37;50.30;;;21.67;;
75932;SDS011;64803;52.356;5.310;2023-02-21T10:23:17;64.45;;;25.45;;
75932;SDS011;64803;52.356;5.310;2023-02-21T10:25:47;55.80;;;22.02;;
75932;SDS011;64803;52.356;5.310;2023-02-21T10:28:20;54.00;;;23.88;;
75932;SDS011;64803;52.356;5.310;2023-02-21T10:30:49;57.88;;;23.80;;
75932;SDS011;64803;52.356;5.310;2023-02-21T10:33:21;51.17;;;21.88;;
75932;SDS011;64803;52.356;5.310;2023-02-21T10:35:47;56.75;;;24.90;;
75932;SDS011;64803;52.356;5.310;2023-02-21T10:38:18;43.00;;;18.52;;
75932;SDS011;64803;52.356;5.310;2023-02-21T10:40:51;57.03;;;22.83;;
75932;SDS011;64803;52.356;5.310;2023-02-21T10:43:25;50.97;;;18.92;;
75932;SDS011;64803;52.356;5.310;2023-02-21T10:45:55;57.15;;;25.05;;
75932;SDS011;64803;52.356;5.310;2023-02-21T10:48:24;59.25;;;22.30;;
75932;SDS011;64803;52.356;5.310;2023-02-21T10:53:31;51.75;;;20.65;;
75932;SDS011;64803;52.356;5.310;2023-02-21T11:04:40;46.50;;;18.98;;
75932;SDS011;64803;52.356;5.310;2023-02-21T11:06:47;48.28;;;20.65;;
75932;SDS011;64803;52.356;5.310;2023-02-21T11:12:26;54.67;;;20.85;;
75932;SDS011;64803;52.356;5.310;2023-02-21T11:17:25;48.72;;;20.30;;
75932;SDS011;64803;52.356;5.310;2023-02-21T11:22:46;45.90;;;18.55;;
75932;SDS011;64803;52.356;5.310;2023-02-21T11:28:16;51.13;;;20.70;;
75932;SDS011;64803;52.356;5.310;2023-02-21T11:30:49;53.22;;;21.58;;
75932;SDS011;64803;52.356;5.310;2023-02-21T11:33:22;51.50;;;22.73;;
75932;SDS011;64803;52.356;5.310;2023-02-21T11:35:49;50.30;;;21.77;;
75932;SDS011;64803;52.356;5.310;2023-02-21T11:41:14;49.20;;;20.40;;
75932;SDS011;64803;52.356;5.310;2023-02-21T11:43:58;48.08;;;18.88;;
75932;SDS011;64803;52.356;5.310;2023-02-21T11:46:43;50.30;;;21.98;;
75932;SDS011;64803;52.356;5.310;2023-02-21T11:49:19;47.85;;;21.45;;
75932;SDS011;64803;52.356;5.310;2023-02-21T11:52:00;50.72;;;21.15;;
75932;SDS011;64803;52.356;5.310;2023-02-21T11:54:31;47.58;;;21.17;;
75932;SDS011;64803;52.356;5.310;2023-02-21T12:10:57;48.97;;;20.42;;
75932;SDS011;64803;52.356;5.310;2023-02-21T12:14:18;48.22;;;19.85;;
75932;SDS011;64803;52.356;5.310;2023-02-21T12:30:16;55.28;;;22.48;;
75932;SDS011;64803;52.356;5.310;2023-02-21T12:32:54;57.85;;;22.88;;
75932;SDS011;64803;52.356;5.310;2023-02-21T12:47:02;53.50;;;21.20;;
75932;SDS011;64803;52.356;5.310;2023-02-21T12:49:48;57.47;;;23.42;;
75932;SDS011;64803;52.356;5.310;2023-02-21T12:55:44;50.28;;;21.83;;
75932;SDS011;64803;52.356;5.310;2023-02-21T13:01:14;53.88;;;21.98;;
75932;SDS011;64803;52.356;5.310;2023-02-21T13:03:59;60.90;;;22.70;;
75932;SDS011;64803;52.356;5.310;2023-02-21T13:06:32;62.35;;;23.50;;
75932;SDS011;64803;52.356;5.310;2023-02-21T13:09:16;57.22;;;22.40;;
75932;SDS011;64803;52.356;5.310;2023-02-21T13:12:22;65.57;;;26.05;;
75932;SDS011;64803;52.356;5.310;2023-02-21T13:15:00;63.38;;;23.75;;
75932;SDS011;64803;52.356;5.310;2023-02-21T13:20:06;77.88;;;25.33;;
75932;SDS011;64803;52.356;5.310;2023-02-21T13:28:18;75.70;;;24.40;;
75932;SDS011;64803;52.356;5.310;2023-02-21T13:30:51;71.90;;;22.17;;
75932;SDS011;64803;52.356;5.310;2023-02-21T13:33:42;76.18;;;24.58;;
75932;SDS011;64803;52.356;5.310;2023-02-21T13:36:24;75.45;;;22.38;;
75932;SDS011;64803;52.356;5.310;2023-02-21T13:41:44;78.72;;;24.58;;
75932;SDS011;64803;52.356;5.310;2023-02-21T13:44:18;75.60;;;20.77;;
75932;SDS011;64803;52.356;5.310;2023-02-21T13:57:33;69.05;;;20.88;;
75932;SDS011;64803;52.356;5.310;2023-02-21T14:03:03;76.07;;;19.75;;
75932;SDS011;64803;52.356;5.310;2023-02-21T14:08:18;64.38;;;20.63;;
75932;SDS011;64803;52.356;5.310;2023-02-21T14:13:34;60.85;;;17.30;;
75932;SDS011;64803;52.356;5.310;2023-02-21T14:24:12;53.60;;;15.70;;
75932;SDS011;64803;52.356;5.310;2023-02-21T14:34:33;46.03;;;14.63;;
75932;SDS011;64803;52.356;5.310;2023-02-21T14:37:02;48.10;;;14.02;;
75932;SDS011;64803;52.356;5.310;2023-02-21T14:39:38;48.92;;;14.45;;
75932;SDS011;64803;52.356;5.310;2023-02-21T14:47:29;49.03;;;13.30;;
75932;SDS011;64803;52.356;5.310;2023-02-21T14:50:31;50.85;;;14.82;;
75932;SDS011;64803;52.356;5.310;2023-02-21T15:12:40;55.97;;;16.20;;
75932;SDS011;64803;52.356;5.310;2023-02-21T15:20:38;49.17;;;17.40;;
75932;SDS011;64803;52.356;5.310;2023-02-21T15:25:35;58.80;;;20.35;;
75932;SDS011;64803;52.356;5.310;2023-02-21T15:28:05;58.67;;;21.40;;
75932;SDS011;64803;52.356;5.310;2023-02-21T15:30:36;60.28;;;21.23;;
75932;SDS011;64803;52.356;5.310;2023-02-21T15:33:18;60.58;;;20.50;;
75932;SDS011;64803;52.356;5.310;2023-02-21T15:35:50;62.63;;;20.00;;
75932;SDS011;64803;52.356;5.310;2023-02-21T15:38:19;58.33;;;18.77;;
75932;SDS011;64803;52.356;5.310;2023-02-21T15:40:51;61.33;;;21.45;;
75932;SDS011;64803;52.356;5.310;2023-02-21T15:43:32;57.03;;;19.98;;
75932;SDS011;64803;52.356;5.310;2023-02-21T15:46:05;58.78;;;19.77;;
75932;SDS011;64803;52.356;5.310;2023-02-21T15:48:34;58.13;;;20.23;;
75932;SDS011;64803;52.356;5.310;2023-02-21T15:51:01;57.45;;;18.85;;
75932;SDS011;64803;52.356;5.310;2023-02-21T15:53:31;56.10;;;19.67;;
75932;SDS011;64803;52.356;5.310;2023-02-21T16:04:35;52.92;;;18.98;;
75932;SDS011;64803;52.356;5.310;2023-02-21T16:07:31;60.25;;;20.80;;
75932;SDS011;64803;52.356;5.310;2023-02-21T16:10:00;56.35;;;19.13;;
75932;SDS011;64803;52.356;5.310;2023-02-21T16:12:32;60.00;;;19.65;;
75932;SDS011;64803;52.356;5.310;2023-02-21T16:15:05;55.28;;;19.67;;
75932;SDS011;64803;52.356;5.310;2023-02-21T16:17:54;55.67;;;18.85;;
75932;SDS011;64803;52.356;5.310;2023-02-21T16:20:41;57.45;;;19.15;;
75932;SDS011;64803;52.356;5.310;2023-02-21T16:28:43;52.42;;;15.70;;
75932;SDS011;64803;52.356;5.310;2023-02-21T16:31:14;48.00;;;15.73;;
75932;SDS011;64803;52.356;5.310;2023-02-21T16:33:41;38.65;;;12.70;;
75932;SDS011;64803;52.356;5.310;2023-02-21T16:36:19;40.22;;;13.60;;
75932;SDS011;64803;52.356;5.310;2023-02-21T16:38:49;38.80;;;12.98;;
75932;SDS011;64803;52.356;5.310;2023-02-21T16:41:15;35.67;;;11.82;;
75932;SDS011;64803;52.356;5.310;2023-02-21T16:43:41;37.10;;;12.05;;
75932;SDS011;64803;52.356;5.310;2023-02-21T16:46:07;33.10;;;10.50;;
75932;SDS011;64803;52.356;5.310;2023-02-21T16:48:33;29.48;;;10.27;;
75932;SDS011;64803;52.356;5.310;2023-02-21T16:50:59;30.83;;;9.82;;
75932;SDS011;64803;52.356;5.310;2023-02-21T16:53:27;28.65;;;9.95;;
75932;SDS011;64803;52.356;5.310;2023-02-21T16:55:54;35.53;;;10.93;;
75932;SDS011;64803;52.356;5.310;2023-02-21T16:58:25;29.50;;;10.25;;
75932;SDS011;64803;52.356;5.310;2023-02-21T17:00:58;30.45;;;10.00;;
75932;SDS011;64803;52.356;5.310;2023-02-21T17:03:27;23.23;;;9.27;;
75932;SDS011;64803;52.356;5.310;2023-02-21T17:05:53;24.60;;;9.05;;
75932;SDS011;64803;52.356;5.310;2023-02-21T17:08:21;23.55;;;8.52;;
75932;SDS011;64803;52.356;5.310;2023-02-21T17:10:47;22.88;;;7.43;;
75932;SDS011;64803;52.356;5.310;2023-02-21T17:13:13;30.15;;;8.07;;
75932;SDS011;64803;52.356;5.310;2023-02-21T17:15:39;26.08;;;7.10;;
75932;SDS011;64803;52.356;5.310;2023-02-21T17:18:05;21.75;;;7.53;;
75932;SDS011;64803;52.356;5.310;2023-02-21T17:20:32;23.90;;;7.43;;
75932;SDS011;64803;52.356;5.310;2023-02-21T17:22:58;24.27;;;7.68;;
75932;SDS011;64803;52.356;5.310;2023-02-21T17:25:24;21.90;;;7.28;;
75932;SDS011;64803;52.356;5.310;2023-02-21T17:27:51;27.48;;;9.10;;
75932;SDS011;64803;52.356;5.310;2023-02-21T17:30:17;30.23;;;8.50;;
75932;SDS011;64803;52.356;5.310;2023-02-21T17:32:45;26.30;;;8.23;;
75932;SDS011;64803;52.356;5.310;2023-02-21T17:35:12;25.65;;;9.52;;
75932;SDS011;64803;52.356;5.310;2023-02-21T17:37:40;29.20;;;8.35;;
75932;SDS011;64803;52.356;5.310;2023-02-21T17:40:08;23.98;;;7.88;;
75932;SDS011;64803;52.356;5.310;2023-02-21T17:42:35;26.40;;;7.43;;
75932;SDS011;64803;52.356;5.310;2023-02-21T17:45:02;25.25;;;8.60;;
75932;SDS011;64803;52.356;5.310;2023-02-21T17:47:28;23.92;;;8.75;;
75932;SDS011;64803;52.356;5.310;2023-02-21T17:49:54;26.23;;;8.68;;
75932;SDS011;64803;52.356;5.310;2023-02-21T17:52:23;22.50;;;7.85;;
75932;SDS011;64803;52.356;5.310;2023-02-21T17:54:49;23.80;;;7.50;;
75932;SDS011;64803;52.356;5.310;2023-02-21T17:57:15;20.17;;;6.72;;
75932;SDS011;64803;52.356;5.310;2023-02-21T17:59:41;19.48;;;6.85;;
75932;SDS011;64803;52.356;5.310;2023-02-21T18:02:07;21.20;;;7.57;;
75932;SDS011;64803;52.356;5.310;2023-02-21T18:04:33;18.42;;;6.68;;
75932;SDS011;64803;52.356;5.310;2023-02-21T18:06:59;18.45;;;7.45;;
75932;SDS011;64803;52.356;5.310;2023-02-21T18:09:25;19.23;;;7.50;;
75932;SDS011;64803;52.356;5.310;2023-02-21T18:11:52;18.58;;;6.60;;
75932;SDS011;64803;52.356;5.310;2023-02-21T18:14:20;18.73;;;6.93;;